Time;durP1;ratioP1;P1;durP2;ratioP2;P2;SDS_P1;SDS_P2;PMS_P1;PMS_P2;Temp;Humidity;BMP_temperature;BMP_pressure;BME280_temperature;BME280_humidity;BME280_pressure;Samples;Min_cycle;Max_cycle;Signal;HPM_P1;HPM_P2
2021/08/16 00:01:00;;;;;;;24.90;13.75;;;18.00;99.90;;;;;;5013669;28;20042;-77
2021/08/16 00:03:26;;;;;;;19.90;11.38;;;18.00;99.90;;;;;;5013460;28;20050;-78
2021/08/16 00:05:53;;;;;;;21.45;11.20;;;18.00;99.90;;;;;;5012713;28;20057;-77
2021/08/16 00:08:19;;;;;;;15.65;9.98;;;18.00;99.90;;;;;;5012897;28;20046;-77
2021/08/16 00:10:45;;;;;;;19.77;11.65;;;18.00;99.90;;;;;;4995920;28;20061;-77
2021/08/16 00:13:12;;;;;;;17.77;11.32;;;18.00;99.90;;;;;;5013249;28;20053;-78
2021/08/16 00:15:39;;;;;;;24.85;12.25;;;18.00;99.90;;;;;;5014336;28;20041;-77
2021/08/16 00:18:05;;;;;;;16.65;9.57;;;18.00;99.90;;;;;;5013608;28;20045;-77
2021/08/16 00:20:32;;;;;;;18.65;8.82;;;18.00;99.90;;;;;;5013512;28;20042;-77
2021/08/16 00:22:59;;;;;;;18.67;7.88;;;18.10;99.90;;;;;;5013419;28;20096;-77
2021/08/16 00:25:25;;;;;;;15.90;9.50;;;18.00;99.90;;;;;;5012944;28;20054;-78
2021/08/16 00:27:52;;;;;;;17.02;8.95;;;18.00;99.90;;;;;;5013572;28;21007;-77
2021/08/16 00:30:20;;;;;;;12.93;8.00;;;18.00;99.90;;;;;;5013740;28;20049;-77
2021/08/16 00:32:46;;;;;;;13.02;6.90;;;18.00;99.90;;;;;;5016015;28;20046;-78
2021/08/16 00:35:12;;;;;;;11.05;6.50;;;18.00;99.90;;;;;;5017225;28;20046;-77
2021/08/16 00:37:39;;;;;;;8.68;6.25;;;18.00;99.90;;;;;;5016682;28;20053;-78
2021/08/16 00:40:06;;;;;;;13.80;5.18;;;18.00;99.90;;;;;;5016397;28;20046;-78
2021/08/16 00:42:33;;;;;;;12.32;5.90;;;18.00;99.90;;;;;;5016293;28;20046;-76
2021/08/16 00:44:59;;;;;;;9.05;4.63;;;17.90;99.90;;;;;;5015837;28;20045;-76
2021/08/16 00:47:27;;;;;;;8.45;4.13;;;17.90;99.90;;;;;;5015666;28;20054;-77
2021/08/16 00:49:53;;;;;;;7.28;3.60;;;17.90;99.90;;;;;;5015922;28;20061;-76
2021/08/16 00:52:20;;;;;;;9.32;4.22;;;17.90;99.90;;;;;;5016338;28;20053;-76
2021/08/16 00:54:46;;;;;;;10.00;3.85;;;17.80;99.90;;;;;;5015997;28;20045;-76
2021/08/16 00:57:13;;;;;;;10.15;3.80;;;18.10;99.90;;;;;;5015790;28;20080;-77
2021/08/16 00:59:39;;;;;;;8.57;3.78;;;17.80;99.90;;;;;;5016403;28;20376;-76
2021/08/16 01:02:05;;;;;;;10.00;3.92;;;17.70;99.90;;;;;;5016190;28;20313;-75
2021/08/16 01:04:32;;;;;;;11.27;4.45;;;17.60;99.90;;;;;;5016421;28;20045;-76
2021/08/16 01:06:58;;;;;;;13.13;4.57;;;17.70;99.90;;;;;;5016382;28;20068;-76
2021/08/16 01:09:24;;;;;;;15.23;3.97;;;17.70;99.90;;;;;;5016409;28;20054;-76
2021/08/16 01:11:51;;;;;;;11.50;4.05;;;17.60;99.90;;;;;;5015572;28;20053;-76
2021/08/16 01:14:19;;;;;;;15.07;4.15;;;17.60;99.90;;;;;;5015547;28;20466;-76
2021/08/16 01:16:48;;;;;;;12.50;4.43;;;17.60;99.90;;;;;;5016072;28;20432;-76
2021/08/16 01:19:22;;;;;;;21.10;4.53;;;17.60;99.90;;;;;;5015706;28;20423;-77
2021/08/16 01:21:48;;;;;;;14.18;4.43;;;17.60;99.90;;;;;;5015671;28;20101;-76
2021/08/16 01:24:16;;;;;;;20.48;4.97;;;17.60;99.90;;;;;;5015378;28;20054;-76
2021/08/16 01:26:42;;;;;;;27.45;5.53;;;17.60;99.90;;;;;;5015300;28;20054;-77
2021/08/16 01:29:20;;;;;;;20.90;6.50;;;17.60;99.90;;;;;;5015952;28;20439;-77
2021/08/16 01:31:47;;;;;;;26.15;5.40;;;17.60;99.90;;;;;;5015559;28;20066;-77
2021/08/16 01:34:13;;;;;;;18.65;5.93;;;17.60;99.90;;;;;;5014943;28;20087;-77
2021/08/16 01:36:44;;;;;;;18.75;5.40;;;17.60;99.90;;;;;;5015652;28;20049;-77
2021/08/16 01:39:10;;;;;;;14.48;4.40;;;17.60;99.90;;;;;;5015297;28;20439;-76
2021/08/16 01:41:36;;;;;;;22.90;6.53;;;17.60;99.90;;;;;;4997912;28;20065;-77
2021/08/16 01:44:03;;;;;;;20.27;5.22;;;17.50;99.90;;;;;;5015179;28;20049;-77
2021/08/16 01:46:29;;;;;;;18.55;4.93;;;17.60;99.90;;;;;;5015788;28;20057;-77
2021/08/16 01:48:56;;;;;;;20.30;5.15;;;17.60;99.90;;;;;;5015023;28;20442;-77
2021/08/16 01:51:22;;;;;;;28.70;7.13;;;17.60;99.90;;;;;;5014925;28;20053;-76
2021/08/16 01:53:48;;;;;;;27.35;6.60;;;17.60;99.90;;;;;;5015724;28;20057;-77
2021/08/16 01:56:17;;;;;;;25.50;6.25;;;17.60;99.90;;;;;;5015299;28;20057;-76
2021/08/16 01:58:43;;;;;;;28.30;6.78;;;17.70;99.90;;;;;;5015040;28;20053;-76
2021/08/16 02:01:10;;;;;;;26.00;6.25;;;17.60;99.90;;;;;;5015432;28;20416;-77
2021/08/16 02:03:36;;;;;;;19.55;5.63;;;17.60;99.90;;;;;;5014881;28;20042;-76
2021/08/16 02:06:02;;;;;;;21.00;6.78;;;17.60;99.90;;;;;;5015115;28;20045;-78
2021/08/16 02:08:29;;;;;;;16.83;4.88;;;17.60;99.90;;;;;;5015327;28;20042;-77
2021/08/16 02:10:55;;;;;;;22.63;5.88;;;17.60;99.90;;;;;;5015162;28;20046;-77
2021/08/16 02:13:21;;;;;;;20.48;6.32;;;17.50;99.90;;;;;;5014929;28;20052;-77
2021/08/16 02:15:48;;;;;;;20.42;5.82;;;17.60;99.90;;;;;;5015251;28;20046;-77
2021/08/16 02:18:14;;;;;;;24.00;6.47;;;17.70;99.90;;;;;;5015034;28;20050;-78
2021/08/16 02:20:40;;;;;;;25.00;6.22;;;17.60;99.90;;;;;;5014764;28;20049;-77
2021/08/16 02:23:06;;;;;;;18.63;5.35;;;17.60;99.90;;;;;;5014600;28;20046;-76
2021/08/16 02:25:33;;;;;;;17.58;5.63;;;17.60;99.90;;;;;;5015062;28;20054;-76
2021/08/16 02:27:59;;;;;;;21.88;7.13;;;17.60;99.90;;;;;;5014129;28;20049;-76
2021/08/16 02:30:25;;;;;;;18.30;5.57;;;17.60;99.90;;;;;;5014516;28;20073;-76
2021/08/16 02:32:51;;;;;;;18.00;5.90;;;17.60;99.90;;;;;;5014310;28;20061;-76
2021/08/16 02:35:18;;;;;;;27.48;6.90;;;17.60;99.90;;;;;;5014318;28;20054;-76
2021/08/16 02:37:44;;;;;;;24.60;6.25;;;17.60;99.90;;;;;;5014673;28;20046;-76
2021/08/16 02:40:11;;;;;;;27.73;6.97;;;17.60;99.90;;;;;;5014640;28;20345;-76
2021/08/16 02:42:39;;;;;;;22.33;6.93;;;17.60;99.90;;;;;;5014469;28;20049;-77
2021/08/16 02:45:06;;;;;;;26.27;6.72;;;17.60;99.90;;;;;;5014735;28;20058;-78
2021/08/16 02:47:32;;;;;;;18.35;6.20;;;17.50;99.90;;;;;;5014563;28;20053;-77
2021/08/16 02:49:59;;;;;;;23.33;5.85;;;17.60;99.90;;;;;;5014816;28;20053;-77
2021/08/16 02:52:25;;;;;;;15.10;4.80;;;17.80;99.90;;;;;;5014377;28;20054;-78
2021/08/16 02:54:52;;;;;;;19.40;6.25;;;17.60;99.90;;;;;;5013823;28;20061;-77
2021/08/16 02:57:20;;;;;;;23.67;7.93;;;17.70;99.90;;;;;;5013845;28;20046;-77
2021/08/16 02:59:47;;;;;;;22.52;7.53;;;17.70;99.90;;;;;;5014021;28;20050;-77
2021/08/16 03:02:13;;;;;;;27.08;7.47;;;17.70;99.90;;;;;;5013272;28;20058;-77
2021/08/16 03:04:39;;;;;;;18.15;5.90;;;17.70;99.90;;;;;;5014535;28;20428;-77
2021/08/16 03:07:05;;;;;;;23.77;7.28;;;17.70;99.90;;;;;;5013838;28;20058;-77
2021/08/16 03:09:32;;;;;;;18.75;6.13;;;17.70;99.90;;;;;;5014046;28;20053;-77
2021/08/16 03:11:58;;;;;;;21.20;5.65;;;17.70;99.90;;;;;;5014414;28;20073;-77
2021/08/16 03:14:25;;;;;;;20.30;6.03;;;17.70;99.90;;;;;;5014044;28;20041;-77
2021/08/16 03:16:52;;;;;;;20.33;6.38;;;17.80;99.90;;;;;;5014086;28;20060;-77
2021/08/16 03:19:18;;;;;;;15.98;5.05;;;17.80;99.90;;;;;;5013052;28;20054;-78
2021/08/16 03:21:44;;;;;;;18.48;5.40;;;17.80;99.90;;;;;;5013871;28;20053;-76
2021/08/16 03:24:11;;;;;;;15.82;5.53;;;17.80;99.90;;;;;;5013067;28;20695;-77
2021/08/16 03:26:37;;;;;;;19.10;5.35;;;17.80;99.90;;;;;;5014035;28;20058;-77
2021/08/16 03:29:04;;;;;;;15.85;5.18;;;17.90;99.90;;;;;;5013603;28;20086;-76
2021/08/16 03:31:30;;;;;;;18.15;5.55;;;17.90;99.90;;;;;;5013831;28;20050;-77
2021/08/16 03:33:56;;;;;;;14.88;5.47;;;17.80;99.90;;;;;;5014301;28;20041;-77
2021/08/16 03:36:23;;;;;;;16.35;6.43;;;17.80;99.90;;;;;;5014094;28;20065;-76
2021/08/16 03:38:49;;;;;;;17.92;5.68;;;17.80;99.90;;;;;;5013874;28;20045;-76
2021/08/16 03:41:16;;;;;;;17.80;5.38;;;17.80;99.90;;;;;;5014181;28;20038;-76
2021/08/16 03:43:42;;;;;;;19.48;6.53;;;17.70;99.90;;;;;;5013192;28;20058;-76
2021/08/16 03:46:08;;;;;;;13.60;5.72;;;17.70;99.90;;;;;;5013973;28;20443;-76
2021/08/16 03:48:36;;;;;;;15.98;5.05;;;17.70;99.90;;;;;;5013641;28;20049;-77
2021/08/16 03:51:02;;;;;;;15.18;6.10;;;17.70;99.90;;;;;;5013425;28;20049;-76
2021/08/16 03:53:28;;;;;;;14.50;5.25;;;17.80;99.90;;;;;;5013398;28;20050;-77
2021/08/16 03:55:55;;;;;;;11.45;4.85;;;17.70;99.90;;;;;;5013542;28;20056;-77
2021/08/16 03:58:21;;;;;;;9.90;4.82;;;17.70;99.90;;;;;;5013577;28;20045;-76
2021/08/16 04:00:47;;;;;;;16.38;6.03;;;17.70;99.90;;;;;;5013285;28;20061;-76
2021/08/16 04:03:14;;;;;;;15.13;4.57;;;17.80;99.90;;;;;;5013793;28;20048;-77
2021/08/16 04:05:40;;;;;;;11.20;4.40;;;17.80;99.90;;;;;;5013476;28;20046;-77
2021/08/16 04:08:07;;;;;;;15.65;5.20;;;17.70;99.90;;;;;;5015986;28;20058;-77
2021/08/16 04:10:33;;;;;;;12.25;5.50;;;17.70;99.90;;;;;;5017176;28;20058;-76
2021/08/16 04:13:00;;;;;;;11.73;5.10;;;17.70;99.90;;;;;;5016654;28;20053;-76
2021/08/16 04:15:26;;;;;;;17.77;5.38;;;17.70;99.90;;;;;;5016487;28;20053;-76
2021/08/16 04:17:53;;;;;;;16.98;5.38;;;17.60;99.90;;;;;;5016297;28;20053;-76
2021/08/16 04:20:21;;;;;;;10.10;3.42;;;17.50;99.90;;;;;;5017022;28;20052;-76
2021/08/16 04:22:48;;;;;;;17.52;4.53;;;17.40;99.90;;;;;;5016999;28;20446;-78
2021/08/16 04:25:17;;;;;;;10.20;4.93;;;17.40;99.90;;;;;;4999747;28;20045;-78
2021/08/16 04:27:44;;;;;;;13.85;5.43;;;17.30;99.90;;;;;;5016671;28;20057;-77
2021/08/16 04:30:12;;;;;;;12.75;5.65;;;17.30;99.90;;;;;;5016828;28;20442;-76
2021/08/16 04:32:38;;;;;;;12.45;5.45;;;17.30;99.90;;;;;;5016703;28;20045;-77
2021/08/16 04:35:05;;;;;;;13.27;5.15;;;17.20;99.90;;;;;;5017725;28;20049;-77
2021/08/16 04:37:39;;;;;;;10.35;4.10;;;17.20;99.90;;;;;;5016930;28;20053;-76
2021/08/16 04:40:06;;;;;;;10.20;4.78;;;17.20;99.90;;;;;;5017237;28;20057;-76
2021/08/16 04:42:33;;;;;;;8.88;5.18;;;17.10;99.90;;;;;;5017141;28;20061;-77
2021/08/16 04:45:00;;;;;;;12.02;5.70;;;17.10;99.90;;;;;;5016819;28;20351;-76
2021/08/16 04:47:32;;;;;;;14.85;4.45;;;17.10;99.90;;;;;;5016752;28;20344;-77
2021/08/16 04:49:58;;;;;;;11.82;4.75;;;17.10;99.90;;;;;;5017084;28;20053;-76
2021/08/16 04:52:25;;;;;;;15.15;5.65;;;17.10;99.90;;;;;;5016828;28;20046;-77
2021/08/16 04:54:51;;;;;;;12.93;4.82;;;17.10;99.90;;;;;;5016878;28;20046;-78
2021/08/16 04:57:31;;;;;;;15.35;5.03;;;17.00;99.90;;;;;;5016025;28;20054;-76
2021/08/16 04:59:58;;;;;;;14.13;5.15;;;17.00;99.90;;;;;;5015600;28;20050;-77
2021/08/16 05:02:25;;;;;;;11.52;4.18;;;17.00;99.90;;;;;;5015582;28;20060;-77
2021/08/16 05:04:56;;;;;;;9.77;4.53;;;16.90;99.90;;;;;;5016572;28;20037;-77
2021/08/16 05:07:22;;;;;;;10.00;3.45;;;16.90;99.90;;;;;;5015650;28;20058;-77
2021/08/16 05:09:50;;;;;;;7.15;3.58;;;17.00;99.90;;;;;;5016176;28;20595;-78
2021/08/16 05:12:16;;;;;;;13.70;3.97;;;17.00;99.90;;;;;;5015821;28;20081;-78
2021/08/16 05:14:42;;;;;;;7.57;2.67;;;17.00;99.90;;;;;;5015999;28;20042;-77
2021/08/16 05:17:09;;;;;;;7.22;3.63;;;17.00;99.90;;;;;;5016245;28;20042;-77
2021/08/16 05:19:38;;;;;;;7.78;3.50;;;17.10;99.90;;;;;;5015209;28;20056;-77
2021/08/16 05:22:12;;;;;;;9.55;3.03;;;17.10;99.90;;;;;;5015699;28;20344;-78
2021/08/16 05:24:39;;;;;;;9.73;3.40;;;17.10;99.90;;;;;;5015620;28;20727;-75
2021/08/16 05:27:25;;;;;;;13.48;2.80;;;17.10;99.90;;;;;;5011991;28;20065;-77
2021/08/16 05:29:51;;;;;;;8.27;3.15;;;17.10;99.90;;;;;;5015485;28;20056;-76
2021/08/16 05:32:19;;;;;;;7.80;2.65;;;17.10;99.90;;;;;;5015395;28;20452;-76
2021/08/16 05:34:45;;;;;;;7.07;2.60;;;17.20;99.90;;;;;;5015548;28;20050;-75
2021/08/16 05:37:15;;;;;;;9.75;2.75;;;17.30;99.90;;;;;;5015639;28;20327;-76
2021/08/16 05:39:41;;;;;;;9.95;2.75;;;17.30;99.90;;;;;;5015376;28;20053;-77
2021/08/16 05:42:10;;;;;;;4.55;2.05;;;17.40;99.90;;;;;;5015405;28;20046;-77
2021/08/16 05:44:37;;;;;;;8.23;2.58;;;17.40;99.90;;;;;;5015431;28;20054;-77
2021/08/16 05:47:05;;;;;;;8.73;2.30;;;17.40;99.90;;;;;;5015414;28;20057;-77
2021/08/16 05:49:34;;;;;;;7.88;2.63;;;17.30;99.90;;;;;;5015816;28;20050;-77
2021/08/16 05:52:00;;;;;;;10.27;3.22;;;17.30;99.90;;;;;;5015451;28;20173;-77
2021/08/16 05:54:28;;;;;;;11.55;2.60;;;17.30;99.90;;;;;;5015663;28;20045;-77
2021/08/16 05:56:54;;;;;;;6.57;3.13;;;17.30;99.90;;;;;;5014956;28;20057;-77
2021/08/16 05:59:20;;;;;;;10.23;2.90;;;17.20;99.90;;;;;;5015404;28;20046;-77
2021/08/16 06:01:47;;;;;;;7.20;2.67;;;17.30;99.90;;;;;;5014804;28;20056;-77
2021/08/16 06:04:14;;;;;;;14.63;3.10;;;17.30;99.90;;;;;;5015183;28;20054;-77
2021/08/16 06:06:40;;;;;;;7.50;3.17;;;17.30;99.90;;;;;;5015724;28;20707;-76
2021/08/16 06:09:06;;;;;;;9.48;3.42;;;17.30;99.90;;;;;;5015563;28;20408;-77
2021/08/16 06:11:33;;;;;;;13.40;3.50;;;17.20;99.90;;;;;;5015081;28;20050;-76
2021/08/16 06:13:59;;;;;;;13.82;4.00;;;17.20;99.90;;;;;;5015176;28;20416;-76
2021/08/16 06:16:26;;;;;;;9.63;3.92;;;17.20;99.90;;;;;;5014381;28;20069;-75
2021/08/16 06:18:52;;;;;;;8.63;3.25;;;17.20;99.90;;;;;;5015059;28;20049;-75
2021/08/16 06:21:19;;;;;;;6.38;3.00;;;17.20;99.90;;;;;;5015360;28;20042;-76
2021/08/16 06:23:46;;;;;;;8.60;3.28;;;17.20;99.90;;;;;;5015317;28;20423;-76
2021/08/16 06:26:13;;;;;;;7.85;2.97;;;17.10;99.90;;;;;;5015007;28;20053;-76
2021/08/16 06:28:39;;;;;;;8.25;3.28;;;17.10;99.90;;;;;;4997525;28;20058;-76
2021/08/16 06:31:07;;;;;;;6.93;2.90;;;17.10;99.90;;;;;;5014556;28;20057;-76
2021/08/16 06:33:40;;;;;;;9.18;2.72;;;17.20;99.90;;;;;;4995478;28;20061;-76
2021/08/16 06:36:08;;;;;;;6.93;2.78;;;17.20;99.90;;;;;;4995213;28;20085;-76
2021/08/16 06:38:35;;;;;;;7.00;3.13;;;17.30;99.90;;;;;;4977705;28;20057;-77
2021/08/16 06:41:02;;;;;;;4.95;2.40;;;17.20;99.90;;;;;;4995036;28;20046;-76
2021/08/16 06:43:32;;;;;;;4.75;3.00;;;17.30;99.90;;;;;;4995120;28;20049;-76
2021/08/16 06:45:59;;;;;;;7.35;2.63;;;17.30;99.90;;;;;;4995161;28;20046;-75
2021/08/16 06:48:25;;;;;;;7.78;3.53;;;17.20;99.90;;;;;;4994859;28;20360;-77
2021/08/16 06:50:51;;;;;;;8.77;3.17;;;17.20;99.90;;;;;;4994882;28;20068;-77
2021/08/16 06:53:17;;;;;;;7.78;3.00;;;17.20;99.90;;;;;;4994394;28;20057;-76
2021/08/16 06:55:45;;;;;;;6.28;2.63;;;17.20;99.90;;;;;;4994332;28;20348;-76
2021/08/16 06:58:11;;;;;;;11.27;3.58;;;17.30;99.90;;;;;;4994172;28;20057;-77
2021/08/16 07:00:42;;;;;;;6.50;2.92;;;17.40;99.90;;;;;;4994298;28;20050;-77
2021/08/16 07:03:09;;;;;;;8.60;3.25;;;17.30;99.90;;;;;;4994200;28;20344;-77
2021/08/16 07:05:43;;;;;;;7.70;3.13;;;17.50;99.90;;;;;;4993354;28;20054;-77
2021/08/16 07:08:10;;;;;;;4.60;2.08;;;17.70;99.90;;;;;;4994492;28;20360;-78
2021/08/16 07:10:37;;;;;;;5.30;2.20;;;17.40;99.90;;;;;;4994319;28;20066;-77
2021/08/16 07:13:03;;;;;;;5.95;2.15;;;17.60;99.90;;;;;;4994237;28;20054;-77
2021/08/16 07:15:30;;;;;;;4.75;1.80;;;17.50;99.90;;;;;;4994085;28;20046;-77
2021/08/16 07:17:56;;;;;;;7.50;1.90;;;17.60;99.90;;;;;;4994798;28;20047;-77
2021/08/16 07:20:23;;;;;;;4.28;1.95;;;17.50;99.90;;;;;;4993275;28;20406;-76
2021/08/16 07:22:49;;;;;;;8.63;2.70;;;17.50;99.90;;;;;;4993454;28;20077;-76
2021/08/16 07:25:16;;;;;;;6.75;2.20;;;17.40;99.90;;;;;;4993638;28;20045;-76
2021/08/16 07:27:42;;;;;;;4.15;1.98;;;17.40;99.90;;;;;;4993338;28;20058;-76
2021/08/16 07:30:09;;;;;;;5.40;1.70;;;17.50;99.90;;;;;;4993008;28;20062;-77
2021/08/16 07:32:35;;;;;;;3.95;1.50;;;17.50;99.90;;;;;;5004527;28;20050;-77
2021/08/16 07:35:01;;;;;;;6.28;2.17;;;17.60;99.90;;;;;;5013330;28;20053;-77
2021/08/16 07:37:28;;;;;;;8.02;1.63;;;18.10;99.90;;;;;;5013183;28;20048;-77
2021/08/16 07:39:54;;;;;;;3.92;1.60;;;18.20;99.90;;;;;;5012914;28;20046;-77
2021/08/16 07:42:23;;;;;;;6.88;1.92;;;18.40;99.90;;;;;;5012241;28;20046;-78
2021/08/16 07:44:51;;;;;;;9.48;2.30;;;18.40;99.90;;;;;;5012636;28;20056;-77
2021/08/16 07:47:18;;;;;;;7.50;1.92;;;18.50;99.90;;;;;;5012654;28;20335;-77
2021/08/16 07:49:44;;;;;;;7.13;2.33;;;19.00;99.90;;;;;;5012599;28;20442;-77
2021/08/16 07:52:10;;;;;;;8.95;1.90;;;18.80;99.90;;;;;;5012461;28;20078;-77
2021/08/16 07:54:37;;;;;;;5.60;1.67;;;19.10;99.90;;;;;;5012649;28;20045;-77
2021/08/16 07:57:03;;;;;;;8.20;2.45;;;19.10;99.90;;;;;;5012458;28;20041;-77
2021/08/16 07:59:29;;;;;;;4.72;1.67;;;19.20;99.90;;;;;;5012569;28;20053;-76
2021/08/16 08:01:55;;;;;;;8.02;1.90;;;19.20;99.90;;;;;;5012200;28;20044;-77
2021/08/16 08:04:22;;;;;;;9.20;2.05;;;19.30;99.90;;;;;;5012495;28;20038;-77
2021/08/16 08:06:48;;;;;;;5.20;1.63;;;19.20;99.00;;;;;;5012410;28;20049;-77
2021/08/16 08:09:14;;;;;;;12.82;2.38;;;19.30;99.20;;;;;;5013100;28;20134;-77
2021/08/16 08:11:40;;;;;;;6.57;1.40;;;19.40;99.30;;;;;;5012860;28;20049;-78
2021/08/16 08:14:07;;;;;;;4.75;1.60;;;19.50;99.10;;;;;;5012095;28;20057;-77
2021/08/16 08:16:34;;;;;;;4.50;1.50;;;19.50;98.60;;;;;;5011909;28;20054;-77
2021/08/16 08:19:00;;;;;;;7.43;1.80;;;19.50;98.30;;;;;;5010928;28;20057;-77
2021/08/16 08:21:26;;;;;;;5.88;1.70;;;19.40;98.30;;;;;;4995003;28;20073;-77
2021/08/16 08:23:53;;;;;;;8.90;2.08;;;19.20;98.40;;;;;;5011996;28;20066;-77
2021/08/16 08:26:19;;;;;;;6.68;2.22;;;19.20;98.30;;;;;;5011379;28;20355;-78
2021/08/16 08:28:45;;;;;;;10.15;1.90;;;19.30;98.50;;;;;;5012562;28;20049;-78
2021/08/16 08:31:11;;;;;;;6.97;1.77;;;19.70;98.30;;;;;;5011446;28;20058;-79
2021/08/16 08:33:38;;;;;;;7.28;2.17;;;20.00;98.00;;;;;;5012772;28;20057;-78
2021/08/16 08:36:04;;;;;;;8.48;1.70;;;20.00;97.50;;;;;;5012902;28;20054;-78
2021/08/16 08:38:30;;;;;;;6.10;2.20;;;20.20;97.00;;;;;;5013048;28;20435;-78
2021/08/16 08:41:00;;;;;;;12.63;2.33;;;20.40;96.30;;;;;;5013256;28;20057;-78
2021/08/16 08:43:27;;;;;;;13.32;2.35;;;20.50;95.20;;;;;;5012555;28;20060;-79
2021/08/16 08:45:57;;;;;;;9.50;2.35;;;20.60;95.50;;;;;;5012299;28;20060;-78
2021/08/16 08:48:24;;;;;;;8.93;2.20;;;20.70;93.80;;;;;;5013296;28;20057;-79
2021/08/16 08:50:50;;;;;;;12.68;3.28;;;20.80;95.10;;;;;;5012798;28;20084;-78
2021/08/16 08:53:17;;;;;;;8.20;2.40;;;20.90;94.70;;;;;;5014803;28;20454;-79
2021/08/16 08:55:44;;;;;;;12.05;2.28;;;20.80;94.40;;;;;;5016107;28;20054;-79
2021/08/16 08:58:13;;;;;;;12.88;2.78;;;20.70;94.20;;;;;;5016430;28;20050;-80
2021/08/16 09:00:40;;;;;;;13.20;2.67;;;20.50;94.60;;;;;;5016211;28;20050;-79
2021/08/16 09:03:08;;;;;;;12.68;2.78;;;20.00;94.40;;;;;;5015941;28;20061;-78
2021/08/16 09:05:56;;;;;;;15.30;3.20;;;19.70;94.60;;;;;;5016666;28;20046;-79
2021/08/16 09:08:27;;;;;;;7.35;2.67;;;19.50;95.30;;;;;;5015753;28;20356;-79
2021/08/16 09:11:05;;;;;;;10.80;2.55;;;19.30;95.20;;;;;;5016723;28;20050;-79
2021/08/16 09:13:31;;;;;;;11.57;3.08;;;19.40;95.80;;;;;;5015652;28;20686;-80
2021/08/16 09:16:07;;;;;;;8.70;2.53;;;19.50;95.40;;;;;;5015310;28;20050;-82
2021/08/16 09:18:34;;;;;;;9.57;2.65;;;19.60;94.30;;;;;;5015919;28;20424;-76
2021/08/16 09:21:00;;;;;;;11.20;2.70;;;19.80;94.90;;;;;;5015678;28;20053;-75
2021/08/16 09:23:28;;;;;;;10.82;2.33;;;19.90;95.00;;;;;;5015539;28;20436;-74
2021/08/16 09:25:57;;;;;;;9.50;1.85;;;19.40;94.60;;;;;;5016328;28;20056;-73
2021/08/16 09:28:31;;;;;;;11.98;2.22;;;18.80;94.60;;;;;;5015383;28;20359;-73
2021/08/16 09:31:10;;;;;;;10.57;2.13;;;18.50;94.90;;;;;;5015225;28;20064;-74
2021/08/16 09:33:36;;;;;;;9.82;1.88;;;18.30;96.00;;;;;;4996203;28;20058;-76
2021/08/16 09:36:03;;;;;;;7.97;1.73;;;18.10;96.60;;;;;;4995861;28;20050;-74
2021/08/16 09:38:33;;;;;;;8.25;1.77;;;17.90;96.70;;;;;;4995824;28;20054;-78
2021/08/16 09:40:59;;;;;;;8.43;1.88;;;17.90;97.00;;;;;;4996598;28;20042;-75
2021/08/16 09:43:29;;;;;;;4.82;1.20;;;17.90;97.10;;;;;;4995711;28;20058;-75
2021/08/16 09:45:56;;;;;;;8.38;1.95;;;18.10;97.30;;;;;;4978635;28;20061;-75
2021/08/16 09:48:24;;;;;;;8.00;1.77;;;18.30;97.10;;;;;;4995768;28;20046;-73
2021/08/16 09:50:55;;;;;;;7.55;2.35;;;18.50;97.00;;;;;;4996590;28;20057;-74
2021/08/16 09:53:22;;;;;;;8.88;1.77;;;18.60;96.80;;;;;;4995931;28;20054;-73
2021/08/16 09:55:57;;;;;;;8.55;1.77;;;18.50;96.80;;;;;;4996061;28;20050;-75
2021/08/16 09:58:23;;;;;;;4.43;1.25;;;18.00;96.30;;;;;;4995413;28;20050;-75
2021/08/16 10:00:51;;;;;;;5.53;1.00;;;17.80;96.30;;;;;;4995618;28;20062;-76
2021/08/16 10:03:17;;;;;;;8.32;1.10;;;17.70;96.10;;;;;;4995069;28;20432;-73
2021/08/16 10:05:47;;;;;;;3.70;1.05;;;18.00;95.70;;;;;;4995094;28;20054;-75
2021/08/16 10:08:20;;;;;;;6.75;1.60;;;18.00;96.20;;;;;;4995492;28;20352;-76
2021/08/16 10:10:48;;;;;;;5.47;1.52;;;18.10;96.10;;;;;;4994969;28;20050;-74
2021/08/16 10:13:16;;;;;;;12.52;2.08;;;18.00;95.70;;;;;;4995272;28;20356;-75
2021/08/16 10:15:45;;;;;;;7.40;1.42;;;18.20;95.70;;;;;;4995662;28;20503;-74
2021/08/16 10:18:18;;;;;;;7.05;2.58;;;18.50;95.30;;;;;;4994972;28;20054;-75
2021/08/16 10:20:46;;;;;;;8.30;1.80;;;19.00;95.40;;;;;;4995514;28;20062;-72
2021/08/16 10:23:16;;;;;;;5.22;1.95;;;18.90;95.00;;;;;;4994661;28;20076;-73
2021/08/16 10:25:45;;;;;;;9.93;2.05;;;19.00;94.40;;;;;;4993866;28;20061;-74
2021/08/16 10:28:29;;;;;;;12.82;3.53;;;18.90;94.30;;;;;;4993639;28;20069;-73
2021/08/16 10:30:56;;;;;;;;;;;19.30;94.70;;;;;;4994211;28;20043;-71
2021/08/16 10:33:23;;;;;;;14.20;3.17;;;19.50;94.90;;;;;;5006973;28;20398;-75
2021/08/16 10:35:50;;;;;;;11.23;2.63;;;19.20;94.10;;;;;;5014313;28;20049;-74
2021/08/16 10:38:18;;;;;;;13.30;2.97;;;19.30;94.60;;;;;;5013959;28;20050;-74
2021/08/16 10:40:53;;;;;;;19.17;3.60;;;19.60;94.70;;;;;;5014184;28;20046;-73
2021/08/16 10:43:20;;;;;;;12.07;3.58;;;19.40;93.60;;;;;;5013547;28;20056;-75
2021/08/16 10:45:51;;;;;;;14.98;3.65;;;19.50;92.00;;;;;;4993098;28;20667;-74
2021/08/16 10:48:28;;;;;;;9.43;3.22;;;19.60;90.70;;;;;;4993788;28;20340;-74
2021/08/16 10:51:07;;;;;;;14.38;3.30;;;19.80;90.20;;;;;;4994146;28;20050;-74
2021/08/16 10:53:49;;;;;;;9.50;2.78;;;20.00;90.10;;;;;;4994552;28;20058;-73
2021/08/16 10:56:17;;;;;;;13.40;3.50;;;20.10;87.60;;;;;;4993464;28;20042;-72
2021/08/16 10:58:43;;;;;;;12.55;2.92;;;20.10;87.10;;;;;;4994514;28;20054;-74
2021/08/16 11:01:34;;;;;;;10.00;2.90;;;20.20;86.30;;;;;;4993890;28;20073;-73
2021/08/16 11:04:03;;;;;;;12.35;3.00;;;20.40;86.80;;;;;;4994777;28;20034;-72
2021/08/16 11:06:30;;;;;;;8.13;2.58;;;20.80;82.60;;;;;;4976523;28;20356;-75
2021/08/16 11:09:05;;;;;;;20.13;3.40;;;21.50;80.20;;;;;;4994323;28;20062;-71
2021/08/16 11:11:33;;;;;;;13.00;3.00;;;21.80;77.00;;;;;;4993052;28;20054;-72
2021/08/16 11:14:10;;;;;;;11.95;3.08;;;22.10;78.80;;;;;;4993928;28;20530;-72
2021/08/16 11:16:49;;;;;;;11.38;2.55;;;22.10;74.90;;;;;;4992993;28;20342;-74
2021/08/16 11:19:16;;;;;;;14.60;3.28;;;22.10;77.10;;;;;;4994155;28;20061;-70
2021/08/16 11:22:01;;;;;;;17.63;3.95;;;21.90;75.40;;;;;;4993125;28;20054;-73
2021/08/16 11:24:28;;;;;;;12.38;3.15;;;22.20;76.50;;;;;;4993415;28;20053;-73
2021/08/16 11:26:55;;;;;;;11.02;3.03;;;22.70;77.20;;;;;;4993787;28;20053;-76
2021/08/16 11:29:24;;;;;;;15.55;2.88;;;22.90;73.20;;;;;;4992638;28;20069;-71
2021/08/16 11:31:58;;;;;;;11.70;2.50;;;22.70;72.90;;;;;;4998830;28;20053;-71
2021/08/16 11:34:29;;;;;;;9.60;2.92;;;21.90;72.90;;;;;;5013763;28;20053;-74
2021/08/16 11:36:58;;;;;;;15.23;3.13;;;21.80;74.60;;;;;;5013116;28;20064;-73
2021/08/16 11:39:31;;;;;;;11.63;2.78;;;21.20;75.50;;;;;;5013672;28;20049;-74
2021/08/16 11:42:00;;;;;;;16.65;2.40;;;21.00;76.10;;;;;;5013402;28;20046;-73
2021/08/16 11:44:28;;;;;;;13.55;2.88;;;21.60;77.90;;;;;;5013614;28;20431;-72
2021/08/16 11:46:59;;;;;;;14.23;3.53;;;22.20;77.30;;;;;;5013426;28;20041;-71
2021/08/16 11:49:30;;;;;;;15.43;3.58;;;22.30;77.50;;;;;;5012527;28;20054;-72
2021/08/16 11:51:57;;;;;;;12.07;3.03;;;22.80;76.90;;;;;;5010163;28;20060;-74
2021/08/16 11:54:26;;;;;;;9.38;2.53;;;23.10;73.80;;;;;;5012825;28;20053;-73
2021/08/16 11:56:54;;;;;;;9.73;2.53;;;22.90;70.30;;;;;;5013074;28;20065;-72
2021/08/16 11:59:21;;;;;;;14.98;3.10;;;22.90;67.50;;;;;;5013029;28;20049;-73
2021/08/16 12:01:47;;;;;;;14.32;2.65;;;22.60;66.10;;;;;;5012553;28;20068;-72
2021/08/16 12:04:14;;;;;;;13.48;2.83;;;22.20;65.30;;;;;;5012652;28;20058;-72
2021/08/16 12:06:41;;;;;;;12.02;2.67;;;21.30;66.60;;;;;;5013228;28;20077;-73
2021/08/16 12:09:08;;;;;;;12.07;3.08;;;21.60;69.10;;;;;;5012310;28;20065;-73
2021/08/16 12:11:35;;;;;;;9.68;2.97;;;21.50;67.90;;;;;;5011899;28;20054;-74
2021/08/16 12:14:02;;;;;;;10.35;2.95;;;22.40;69.80;;;;;;5011878;28;20056;-71
2021/08/16 12:16:31;;;;;;;13.40;2.83;;;22.80;64.30;;;;;;5012723;28;20045;-72
2021/08/16 12:18:58;;;;;;;16.70;4.70;;;23.20;64.60;;;;;;5012906;28;20471;-73
2021/08/16 12:21:24;;;;;;;10.30;2.50;;;22.90;62.80;;;;;;5012139;28;20045;-70
2021/08/16 12:23:56;;;;;;;16.40;2.22;;;23.00;63.30;;;;;;5011710;28;20060;-75
2021/08/16 12:26:29;;;;;;;14.75;2.83;;;23.00;63.90;;;;;;5010668;28;20435;-72
2021/08/16 12:28:56;;;;;;;11.23;2.45;;;22.60;62.50;;;;;;5014919;28;20061;-72
2021/08/16 12:31:28;;;;;;;18.35;3.67;;;22.30;65.90;;;;;;5014511;28;20050;-71
2021/08/16 12:34:03;;;;;;;10.45;2.70;;;22.10;66.30;;;;;;5015109;28;20058;-72
2021/08/16 12:36:32;;;;;;;8.50;2.08;;;21.40;62.30;;;;;;5016047;28;20054;-72
2021/08/16 12:39:01;;;;;;;10.32;2.13;;;21.90;64.50;;;;;;5016716;28;20061;-72
2021/08/16 12:41:29;;;;;;;10.43;2.60;;;21.90;64.10;;;;;;5016347;28;20136;-74
2021/08/16 12:43:56;;;;;;;11.52;2.55;;;21.60;66.60;;;;;;5016535;28;20060;-73